This is the latest recevied weather packets stored in our database for station/object KM4CNW. If no packets are shown the sender has not sent any weather packets the latest 1 day(s).
| Time | Temp. | Humidity | Pressure | Rain* | Wind** | Luminosity | Snow |
|---|---|---|---|---|---|---|---|
| 1777997039 | 24.44° C | 40% | 1010.7 hPa | 0 mm | 1.34 m/s, 243° | 761 W/m² | - |
| 1777996735 | 25° C | 41% | 1010.7 hPa | 0 mm | 2.24 m/s, 321° | 784 W/m² | - |
| 1777996431 | 25° C | 40% | 1010.9 hPa | 0 mm | 1.34 m/s, 74° | 775 W/m² | - |
| 1777996128 | 24.44° C | 42% | 1010.8 hPa | 0 mm | 0.45 m/s, 276° | 788 W/m² | - |
| 1777995824 | 24.44° C | 42% | 1010.8 hPa | 0 mm | 0.45 m/s, 205° | 797 W/m² | - |
| 1777995520 | 23.89° C | 43% | 1010.9 hPa | 0 mm | 0.89 m/s, 200° | 783 W/m² | - |
| 1777995217 | 24.44° C | 43% | 1010.9 hPa | 0 mm | 1.34 m/s, 155° | 793 W/m² | - |
| 1777994915 | 24.44° C | 42% | 1010.8 hPa | 0 mm | 0 m/s | 788 W/m² | - |
| 1777994612 | 23.89° C | 44% | 1010.8 hPa | 0 mm | 0.45 m/s, 258° | 777 W/m² | - |
| 1777994311 | 23.89° C | 43% | 1011.1 hPa | 0 mm | 0 m/s | 765 W/m² | - |
| 1777994008 | 23.89° C | 47% | 1010.9 hPa | 0 mm | 0.45 m/s, 264° | 751 W/m² | - |
| 1777993705 | 23.33° C | 46% | 1011.1 hPa | 0 mm | 1.34 m/s, 152° | 735 W/m² | - |
| 1777993402 | 22.78° C | 49% | 1011 hPa | 0 mm | 1.34 m/s, 298° | 705 W/m² | - |
| 1777993097 | 22.78° C | 48% | 1011 hPa | 0 mm | 0.45 m/s, 207° | 669 W/m² | - |
| 1777992796 | 22.78° C | 49% | 1010.6 hPa | 0 mm | 0.45 m/s, 261° | 646 W/m² | - |
| 1777992493 | 22.78° C | 50% | 1010.9 hPa | 0 mm | 0.45 m/s, 118° | 616 W/m² | - |
| 1777992191 | 22.22° C | 50% | 1011.1 hPa | 0 mm | 1.34 m/s, 193° | 628 W/m² | - |
| 1777991888 | 21.67° C | 51% | 1011 hPa | 0 mm | 2.24 m/s, 321° | 619 W/m² | - |
| 1777991585 | 21.67° C | 53% | 1011 hPa | 0 mm | 1.34 m/s, 332° | 570 W/m² | - |
| 1777991282 | 21.67° C | 52% | 1010.8 hPa | 0 mm | 0.89 m/s, 197° | 570 W/m² | - |
| 1777990979 | 21.67° C | 52% | 1010.9 hPa | 0 mm | 0.89 m/s, 186° | 578 W/m² | - |
| 1777990677 | 21.11° C | 53% | 1010.9 hPa | 0 mm | 0.45 m/s, 259° | 580 W/m² | - |
| 1777990374 | 21.11° C | 54% | 1010.7 hPa | 0 mm | 2.24 m/s, 325° | 447 W/m² | - |
| 1777990070 | 20.56° C | 57% | 1010.9 hPa | 0 mm | 0 m/s | 269 W/m² | - |
| 1777989767 | 20.56° C | 57% | 1010.9 hPa | 0 mm | 2.24 m/s, 111° | 169 W/m² | - |
* Rain latest hour (hover to see other rain measurements)
** Current wind speed in m/s (hover to see current wind gust speed)